Flight Track Log - Related Links

Times and Time Zones

All times are in EST time to prevent confusion due to time zone crossing. See the UCA4771 flight status page for this flight to view local times or setup timezone preferences in your user account.


Time Position Orientation Groundspeed Altitude Reporting Facility
EST Latitude Longitude Course Direction KTS MPH feet Rate Location/Type
Tue 09:05:00 AM 39.5845 -74.7864 203° Southwest  Level Estimated
Tue 09:06:00 AM 39.5261 -74.8184 203° Southwest  Level Estimated
Tue 09:07:00 AM 39.4677 -74.8503 203° Southwest  Level Estimated
Tue 09:08:00 AM 39.4092 -74.8822 203° Southwest  Level Estimated
Tue 09:09:00 AM 39.3508 -74.9140 203° Southwest  Level Estimated
Tue 09:10:00 AM 39.2924 -74.9457 203° Southwest  Level Estimated
Tue 09:11:00 AM 39.2339 -74.9774 203° Southwest  Level Estimated
Tue 09:12:00 AM 39.1755 -75.0091 203° Southwest  Level Estimated
Tue 09:13:00 AM 39.1170 -75.0406 203° Southwest  Level Estimated
Tue 09:14:00 AM 39.0585 -75.0722 203° Southwest  Level Estimated
Tue 09:15:00 AM 39.0000 -75.1037 203° Southwest  Level Estimated
Tue 09:16:00 AM 38.9416 -75.1351 203° Southwest  Level Estimated
Tue 09:17:00 AM 38.8830 -75.1665 203° Southwest  Level Estimated
Tue 09:18:00 AM 38.8245 -75.1978 203° Southwest  Level Estimated
Tue 09:19:00 AM 38.7660 -75.2291 203° Southwest  Level Estimated
Tue 09:20:00 AM 38.7075 -75.2603 203° Southwest  Level Estimated
Tue 09:21:00 AM 38.6490 -75.2915 203° Southwest  Level Estimated
Tue 09:22:00 AM 38.5904 -75.3226 203° Southwest  Level Estimated
Tue 09:23:00 AM 38.5319 -75.3537 203° Southwest  Level Estimated
Tue 09:24:00 AM 38.4733 -75.3847 203° Southwest  Level Estimated
Tue 09:25:00 AM 38.4147 -75.4157 203° Southwest  Level Estimated
Tue 09:26:00 AM 38.3562 -75.4466 202° Southwest  Level Estimated
Tue 09:27:00 AM 38.2976 -75.4775 202° Southwest  Level Estimated
Tue 09:28:00 AM 38.2390 -75.5083 202° Southwest  Level Estimated
Tue 09:29:00 AM 38.1804 -75.5391 202° Southwest  Level Estimated
Tue 09:30:00 AM 38.1218 -75.5698 202° Southwest  Level Estimated
Tue 09:31:00 AM 38.0632 -75.6005 202° Southwest  Level Estimated
Tue 09:32:00 AM 38.0046 -75.6311 202° Southwest  Level Estimated
Tue 09:33:00 AM 37.9459 -75.6617 202° Southwest  Level Estimated
Tue 09:34:00 AM 37.8873 -75.6922 202° Southwest  Level Estimated
Tue 09:35:00 AM 37.8287 -75.7227 202° Southwest  Level Estimated
Tue 09:36:00 AM 37.7700 -75.7531 202° Southwest  Level Estimated
Tue 09:37:00 AM 37.7113 -75.7835 202° Southwest  Level Estimated
Tue 09:38:00 AM 37.6527 -75.8139 202° Southwest  Level Estimated
Tue 09:39:00 AM 37.5940 -75.8441 202° Southwest  Level Estimated
Tue 09:40:00 AM 37.5353 -75.8744 202° Southwest  Level Estimated
Tue 09:41:00 AM 37.4766 -75.9046 202° Southwest  Level Estimated
Tue 09:42:00 AM 37.4179 -75.9347 202° Southwest  Level Estimated
Tue 09:43:00 AM 37.3592 -75.9648 202° Southwest  Level Estimated
Tue 09:44:00 AM 37.3005 -75.9949 202° Southwest  Level Estimated
Tue 09:45:00 AM 37.2418 -76.0249 202° Southwest  Level Estimated
Tue 09:46:00 AM 37.1830 -76.0548 202° Southwest  Level Estimated
Tue 09:47:00 AM 37.1243 -76.0847 202° Southwest  Level Estimated
Tue 09:48:00 AM 37.0656 -76.1146 202° Southwest  Level Estimated
Tue 09:49:00 AM 37.0068 -76.1444 202° Southwest  Level Estimated
Tue 09:50:00 AM 36.9480 -76.1742 202° Southwest  Level Estimated
Tue 09:51:00 AM 36.8946 -76.2012 202° Southwest  Level Estimated
Tue 09:52:00 AM 36.8946 -76.2012 302° West  Level Estimated
Tue 09:53:00 AM 36.8946 -76.2012 302° West  Level Estimated
Tue 09:54:00 AM 36.8946 -76.2012 302° West  Level Estimated
Tue 09:55:00 AM 36.8946 -76.2012 302° West  Level Estimated
Tue 09:56:00 AM 36.8946 -76.2012 302° West  Level Estimated
Tue 09:57:00 AM 36.8946 -76.2012 302° West  Level Estimated
Tue 09:58:00 AM 36.8946 -76.2012 302° West  Level Estimated
Tue 09:59:00 AM 36.8946 -76.2012 302° West  Level Estimated
Tue 10:00:00 AM 36.8946 -76.2012 302° West  Level Estimated
Tue 10:01:00 AM 36.8946 -76.2012 302° West  Level Estimated
Tue 10:02:00 AM 36.8946 -76.2012 302° West  Level Estimated
Tue 10:03:00 AM 36.8946 -76.2012 302° West  Level Estimated
Tue 10:04:00 AM 36.8946 -76.2012 302° West  Level Estimated
Tue 10:05:00 AM 36.8946 -76.2012 302° West  Level Estimated
Tue 10:06:00 AM 36.8946 -76.2012 302° West  Level Estimated

Login

Don't have an account? Register now (free) for customized features, flight alerts, and more!